Time;durP1;ratioP1;P1;durP2;ratioP2;P2;SDS_P1;SDS_P2;PMS_P1;PMS_P2;Temp;Humidity;BMP_temperature;BMP_pressure;BME280_temperature;BME280_humidity;BME280_pressure;Samples;Min_cycle;Max_cycle;Signal;HPM_P1;HPM_P2
2022/03/21 00:01:45;;;;;;;9.50;7.40;;;19.80;31.20;;;;;;5047401;28;20513;-84
2022/03/21 00:04:14;;;;;;;7.80;6.70;;;19.80;31.30;;;;;;5046550;28;20448;-85
2022/03/21 00:06:43;;;;;;;9.63;7.30;;;19.80;31.40;;;;;;5047333;28;20537;-84
2022/03/21 00:09:11;;;;;;;9.57;7.10;;;19.80;31.50;;;;;;5047755;28;20456;-84
2022/03/21 00:11:42;;;;;;;9.97;6.83;;;19.70;31.40;;;;;;5046599;28;20462;-84
2022/03/21 00:14:12;;;;;;;7.83;6.80;;;19.70;31.60;;;;;;5046166;28;20450;-84
2022/03/21 00:16:43;;;;;;;9.07;7.03;;;19.70;31.70;;;;;;5044837;28;20472;-84
2022/03/21 00:19:11;;;;;;;11.70;7.70;;;19.70;31.80;;;;;;5045006;28;20486;-84
2022/03/21 00:21:40;;;;;;;8.37;6.73;;;19.70;31.80;;;;;;5038277;28;20447;-85
2022/03/21 00:24:09;;;;;;;9.43;7.30;;;19.70;31.80;;;;;;5041209;28;20486;-83
2022/03/21 00:26:37;;;;;;;11.53;8.27;;;19.60;31.90;;;;;;5040889;28;20475;-84
2022/03/21 00:29:06;;;;;;;9.97;7.40;;;19.60;32.00;;;;;;5041641;28;20447;-84
2022/03/21 00:31:35;;;;;;;9.50;7.60;;;19.60;32.00;;;;;;5043619;28;20444;-84
2022/03/21 00:34:03;;;;;;;11.30;8.13;;;19.50;32.10;;;;;;5040407;28;20446;-84
2022/03/21 00:36:31;;;;;;;10.03;7.30;;;19.50;32.20;;;;;;5043370;28;20463;-85
2022/03/21 00:39:16;;;;;;;10.70;7.23;;;19.50;32.10;;;;;;5041006;28;20455;-83
2022/03/21 00:41:44;;;;;;;10.10;7.20;;;19.50;32.30;;;;;;5044617;28;20454;-86
2022/03/21 00:44:12;;;;;;;7.70;6.70;;;19.50;32.40;;;;;;5044759;28;20439;-82
2022/03/21 00:46:40;;;;;;;9.40;6.87;;;19.50;32.50;;;;;;5044236;28;20471;-84
2022/03/21 00:49:12;;;;;;;8.47;6.60;;;19.40;32.50;;;;;;5044389;28;20443;-86
2022/03/21 00:51:40;;;;;;;9.73;7.30;;;19.40;32.40;;;;;;5044161;28;20443;-83
2022/03/21 00:54:08;;;;;;;8.20;6.40;;;19.40;32.60;;;;;;5044046;28;20467;-84
2022/03/21 00:56:38;;;;;;;9.37;7.20;;;19.40;32.60;;;;;;5042193;28;20533;-81
2022/03/21 00:59:07;;;;;;;9.53;7.27;;;19.40;32.70;;;;;;5040730;28;20469;-82
2022/03/21 01:01:35;;;;;;;9.77;7.17;;;19.30;32.60;;;;;;5044189;28;20456;-85
2022/03/21 01:04:04;;;;;;;8.77;7.23;;;19.30;32.80;;;;;;5043379;28;20448;-83
2022/03/21 01:06:32;;;;;;;8.47;6.67;;;19.30;32.80;;;;;;5043864;28;20490;-84
2022/03/21 01:09:00;;;;;;;14.00;6.90;;;19.30;32.80;;;;;;5048741;28;20493;-84
2022/03/21 01:11:28;;;;;;;9.90;6.93;;;19.20;32.80;;;;;;5054351;28;20462;-84
2022/03/21 01:13:58;;;;;;;8.03;6.90;;;19.20;32.90;;;;;;5049478;28;20513;-84
2022/03/21 01:16:26;;;;;;;10.63;7.47;;;19.20;33.20;;;;;;5054781;28;20470;-83
2022/03/21 01:18:57;;;;;;;8.67;7.00;;;19.20;33.10;;;;;;5052457;28;20487;-84
2022/03/21 01:21:25;;;;;;;12.13;7.30;;;19.10;33.00;;;;;;5055316;28;20440;-83
2022/03/21 01:23:53;;;;;;;9.20;6.80;;;19.10;33.10;;;;;;5050586;28;20524;-84
2022/03/21 01:26:22;;;;;;;9.30;7.20;;;19.10;33.10;;;;;;5061132;28;20470;-84
2022/03/21 01:28:50;;;;;;;12.03;7.70;;;19.10;33.20;;;;;;5043308;28;20460;-83
2022/03/21 01:31:19;;;;;;;9.63;7.10;;;19.10;33.20;;;;;;5044077;28;20447;-83
2022/03/21 01:33:48;;;;;;;13.03;6.87;;;19.10;33.40;;;;;;5044210;28;20470;-84
2022/03/21 01:36:16;;;;;;;8.13;7.13;;;19.00;33.20;;;;;;5044441;28;20490;-84
2022/03/21 01:38:44;;;;;;;8.77;6.80;;;19.00;33.40;;;;;;5044114;28;20475;-85
2022/03/21 01:41:12;;;;;;;8.80;7.00;;;19.00;33.40;;;;;;5044065;28;20467;-84
2022/03/21 01:43:56;;;;;;;9.93;7.20;;;19.00;33.50;;;;;;5043639;28;20455;-84
2022/03/21 01:46:26;;;;;;;9.10;6.50;;;19.00;33.60;;;;;;5036934;28;20478;-84
2022/03/21 01:48:56;;;;;;;11.50;7.83;;;19.00;33.50;;;;;;5044470;28;20455;-84
2022/03/21 01:51:24;;;;;;;8.20;6.70;;;19.00;33.60;;;;;;5048103;28;20521;-85
2022/03/21 01:56:39;;;;;;;9.03;7.20;;;18.90;33.80;;;;;;5049597;28;20459;-85
2022/03/21 01:59:08;;;;;;;7.90;6.50;;;18.80;33.60;;;;;;5045533;28;20470;-84
2022/03/21 02:01:38;;;;;;;9.83;7.10;;;18.80;33.60;;;;;;5044261;28;20451;-84
2022/03/21 02:04:06;;;;;;;9.40;6.80;;;18.80;33.80;;;;;;5045701;28;20463;-84
2022/03/21 02:06:34;;;;;;;8.60;6.60;;;18.70;33.80;;;;;;5045524;28;20482;-84
2022/03/21 02:09:04;;;;;;;8.60;6.73;;;18.70;33.80;;;;;;5044743;28;20471;-85
2022/03/21 02:11:33;;;;;;;9.70;7.40;;;18.80;34.00;;;;;;5049323;28;20474;-84
2022/03/21 02:14:02;;;;;;;9.63;6.70;;;18.70;33.90;;;;;;5048196;28;20447;-84
2022/03/21 02:16:33;;;;;;;8.77;7.10;;;18.70;34.00;;;;;;5047393;28;20492;-84
2022/03/21 02:19:04;;;;;;;10.57;7.60;;;18.70;34.10;;;;;;5049004;28;20450;-85
2022/03/21 02:21:44;;;;;;;8.20;6.73;;;18.70;34.00;;;;;;5048296;28;20448;-83
2022/03/21 02:24:17;;;;;;;7.90;6.20;;;18.60;34.10;;;;;;5048049;28;20471;-83
2022/03/21 02:26:47;;;;;;;9.70;7.70;;;18.60;34.20;;;;;;5048364;28;20467;-84
2022/03/21 02:29:15;;;;;;;7.47;6.67;;;18.60;34.20;;;;;;5048452;28;20459;-83
2022/03/21 02:31:44;;;;;;;9.07;7.17;;;18.60;34.20;;;;;;5047037;28;20494;-83
2022/03/21 02:34:12;;;;;;;8.50;6.93;;;18.60;34.30;;;;;;5047508;28;20443;-84
2022/03/21 02:36:40;;;;;;;10.43;7.00;;;18.60;34.20;;;;;;5047468;28;20470;-84
2022/03/21 02:39:08;;;;;;;11.40;6.50;;;18.50;34.20;;;;;;5048145;28;20510;-85
2022/03/21 02:41:36;;;;;;;8.60;6.67;;;18.50;34.30;;;;;;5047579;28;21000;-84
2022/03/21 02:44:06;;;;;;;7.60;6.50;;;18.50;34.30;;;;;;5048021;28;20448;-84
2022/03/21 02:46:35;;;;;;;9.53;6.90;;;18.50;34.40;;;;;;5048420;28;20463;-83
2022/03/21 02:49:03;;;;;;;7.90;6.27;;;18.50;34.40;;;;;;5046789;28;20479;-85
2022/03/21 02:51:32;;;;;;;10.70;7.13;;;18.50;34.30;;;;;;5047725;28;20414;-85
2022/03/21 02:54:00;;;;;;;8.87;6.43;;;18.50;34.40;;;;;;5048032;28;20468;-85
2022/03/21 02:56:29;;;;;;;8.60;6.63;;;18.40;34.40;;;;;;5048911;28;20489;-85
2022/03/21 02:58:57;;;;;;;7.67;6.87;;;18.40;34.40;;;;;;5046673;28;20483;-84
2022/03/21 03:01:27;;;;;;;9.40;6.70;;;18.40;34.40;;;;;;5047047;28;20453;-83
2022/03/21 03:03:55;;;;;;;9.03;6.70;;;18.40;34.50;;;;;;5052770;28;20466;-83
2022/03/21 03:06:23;;;;;;;7.90;6.60;;;18.40;34.40;;;;;;5054951;28;20463;-83
2022/03/21 03:08:52;;;;;;;7.53;6.50;;;18.40;34.40;;;;;;5054829;28;20476;-83
2022/03/21 03:11:26;;;;;;;9.33;6.53;;;18.30;34.40;;;;;;5047632;28;20455;-84
2022/03/21 03:13:54;;;;;;;7.97;6.67;;;18.30;34.40;;;;;;5047213;28;20447;-84
2022/03/21 03:16:22;;;;;;;10.60;6.20;;;18.30;34.50;;;;;;5039724;28;20480;-84
2022/03/21 03:18:52;;;;;;;8.70;6.73;;;18.30;34.60;;;;;;5042016;28;20519;-85
2022/03/21 03:21:20;;;;;;;9.80;6.53;;;18.20;34.50;;;;;;5045085;28;20450;-83
2022/03/21 03:23:49;;;;;;;8.00;6.53;;;18.20;34.70;;;;;;5045169;28;20467;-84
2022/03/21 03:26:17;;;;;;;9.77;6.97;;;18.20;34.60;;;;;;5044683;28;20470;-83
2022/03/21 03:28:45;;;;;;;8.37;6.50;;;18.20;34.70;;;;;;5042961;28;20521;-83
2022/03/21 03:31:14;;;;;;;6.23;5.63;;;18.30;34.80;;;;;;5043351;28;20451;-83
2022/03/21 03:33:45;;;;;;;7.70;6.30;;;18.20;34.60;;;;;;5042777;28;20462;-84
2022/03/21 03:36:15;;;;;;;7.13;6.33;;;18.20;34.80;;;;;;5035772;28;20490;-83
2022/03/21 03:38:43;;;;;;;9.43;6.33;;;18.20;34.70;;;;;;5044507;28;20501;-83
2022/03/21 03:41:11;;;;;;;6.80;6.10;;;18.20;34.70;;;;;;5044351;28;20443;-83
2022/03/21 03:43:39;;;;;;;9.87;6.70;;;18.20;35.40;;;;;;5043714;28;20447;-84
2022/03/21 03:46:07;;;;;;;8.73;6.50;;;18.20;34.80;;;;;;5043194;28;20463;-83
2022/03/21 03:48:36;;;;;;;8.20;6.40;;;18.10;34.80;;;;;;5044139;28;20482;-84
2022/03/21 03:51:04;;;;;;;9.17;6.60;;;18.10;34.80;;;;;;5043072;28;20489;-84
2022/03/21 03:53:34;;;;;;;6.70;6.00;;;18.10;35.00;;;;;;5051908;28;20434;-84
2022/03/21 03:56:02;;;;;;;9.53;6.90;;;18.10;35.00;;;;;;5053963;28;20490;-84
2022/03/21 03:58:30;;;;;;;8.57;6.83;;;18.10;35.00;;;;;;5044354;28;20446;-84
2022/03/21 04:00:59;;;;;;;8.80;6.73;;;18.00;34.90;;;;;;5042947;28;20448;-83
2022/03/21 04:06:15;;;;;;;9.70;7.40;;;18.00;35.00;;;;;;5041751;28;20471;-84
2022/03/21 04:08:45;;;;;;;7.30;6.23;;;18.00;35.20;;;;;;5049226;28;20475;-83
2022/03/21 04:11:13;;;;;;;9.03;6.77;;;18.00;35.20;;;;;;5043856;28;20479;-85
2022/03/21 04:13:42;;;;;;;9.10;7.00;;;18.00;35.20;;;;;;5042801;28;20454;-84
2022/03/21 04:16:10;;;;;;;7.27;6.43;;;18.00;35.20;;;;;;5041650;28;20479;-83
2022/03/21 04:18:38;;;;;;;7.90;6.60;;;17.90;35.20;;;;;;5042487;28;20467;-83
2022/03/21 04:21:24;;;;;;;9.83;6.50;;;17.90;35.40;;;;;;5040754;28;20469;-83
2022/03/21 04:23:56;;;;;;;7.40;6.20;;;17.90;35.20;;;;;;5038745;28;20467;-84
2022/03/21 04:26:25;;;;;;;8.37;6.67;;;17.90;35.40;;;;;;5040505;28;20452;-84
2022/03/21 04:28:55;;;;;;;7.13;6.00;;;17.80;35.40;;;;;;5041040;28;20498;-84
2022/03/21 04:31:23;;;;;;;8.20;6.60;;;17.80;35.40;;;;;;5042048;28;20443;-84
2022/03/21 04:33:51;;;;;;;8.60;6.33;;;17.80;35.50;;;;;;5042618;28;20507;-83
2022/03/21 04:36:21;;;;;;;8.17;6.50;;;17.80;35.50;;;;;;5042750;28;20474;-85
2022/03/21 04:38:50;;;;;;;9.37;6.80;;;17.80;35.70;;;;;;5040839;28;20463;-84
2022/03/21 04:41:20;;;;;;;6.90;6.00;;;17.80;35.60;;;;;;5034495;28;20475;-84
2022/03/21 04:43:49;;;;;;;7.73;6.30;;;17.70;35.70;;;;;;5041402;28;20450;-84
2022/03/21 04:46:18;;;;;;;7.73;6.07;;;17.70;35.70;;;;;;5040761;28;20467;-83
2022/03/21 04:48:46;;;;;;;7.37;6.43;;;17.70;35.80;;;;;;5040605;28;20471;-83
2022/03/21 04:51:14;;;;;;;8.50;6.67;;;17.70;35.80;;;;;;5039444;28;20455;-83
2022/03/21 04:53:42;;;;;;;8.03;6.23;;;17.60;35.70;;;;;;5040047;28;20474;-84
2022/03/21 04:56:11;;;;;;;9.30;6.90;;;17.60;35.80;;;;;;5039230;28;20475;-83
2022/03/21 04:58:41;;;;;;;7.60;6.30;;;17.60;35.70;;;;;;5039238;28;20440;-83
2022/03/21 05:01:09;;;;;;;8.23;6.37;;;17.60;35.90;;;;;;5039462;28;20444;-83
2022/03/21 05:03:37;;;;;;;9.20;6.50;;;17.60;35.90;;;;;;5039268;28;20522;-84
2022/03/21 05:06:06;;;;;;;8.07;6.27;;;17.50;35.90;;;;;;5039957;28;20546;-83
2022/03/21 05:08:34;;;;;;;7.10;5.60;;;17.50;35.90;;;;;;5041536;28;20476;-82
2022/03/21 05:11:02;;;;;;;7.70;6.37;;;17.50;36.00;;;;;;5041830;28;20443;-84
2022/03/21 05:13:30;;;;;;;8.63;6.70;;;17.50;36.00;;;;;;5041058;28;20469;-84
2022/03/21 05:16:00;;;;;;;6.90;6.20;;;17.50;36.00;;;;;;5041588;28;20471;-84
2022/03/21 05:18:28;;;;;;;7.43;6.00;;;17.50;36.00;;;;;;5042328;28;20444;-84
2022/03/21 05:20:57;;;;;;;6.53;5.90;;;17.40;36.00;;;;;;5042337;28;20451;-84
2022/03/21 05:31:48;;;;;;;9.60;7.17;;;17.40;36.20;;;;;;5042319;28;20459;-84
2022/03/21 05:37:07;;;;;;;7.90;6.13;;;17.30;36.20;;;;;;5042853;28;20463;-83
2022/03/21 05:40:31;;;;;;;8.83;6.80;;;17.30;36.40;;;;;;5043099;28;20471;-84
2022/03/21 05:42:23;;;;;;;7.73;6.33;;;17.30;36.30;;;;;;5046614;28;20451;-83
2022/03/21 05:44:52;;;;;;;8.60;6.53;;;17.20;36.20;;;;;;5046513;28;20594;-83
2022/03/21 05:47:23;;;;;;;7.10;6.00;;;17.20;36.40;;;;;;5046544;28;20478;-83
2022/03/21 05:49:51;;;;;;;6.33;5.73;;;17.20;36.40;;;;;;5046135;28;20525;-83
2022/03/21 05:52:19;;;;;;;9.10;6.30;;;17.20;36.50;;;;;;5046549;28;20470;-83
2022/03/21 05:54:48;;;;;;;8.60;6.50;;;17.20;36.50;;;;;;5048866;28;20449;-82
2022/03/21 05:57:16;;;;;;;7.03;6.27;;;17.20;36.40;;;;;;5051285;28;20459;-83
2022/03/21 06:02:33;;;;;;;9.07;6.80;;;17.20;36.40;;;;;;5047459;28;20455;-83
2022/03/21 06:05:04;;;;;;;8.50;6.63;;;17.20;36.60;;;;;;5045145;28;20455;-83
2022/03/21 06:07:32;;;;;;;7.80;6.10;;;17.20;36.60;;;;;;5044874;28;20473;-84
2022/03/21 06:10:03;;;;;;;9.10;6.93;;;17.20;36.60;;;;;;5045398;28;20475;-83
2022/03/21 06:12:31;;;;;;;9.27;5.80;;;17.20;36.60;;;;;;5045661;28;20447;-83
2022/03/21 06:15:00;;;;;;;7.10;5.90;;;17.20;36.50;;;;;;5045596;28;20517;-82
2022/03/21 06:17:37;;;;;;;9.57;6.93;;;17.20;36.60;;;;;;5044261;28;20506;-83
2022/03/21 06:20:08;;;;;;;7.93;5.97;;;17.20;36.70;;;;;;5045028;28;20439;-83
2022/03/21 06:22:36;;;;;;;7.67;6.07;;;17.20;36.60;;;;;;5043931;28;20477;-84
2022/03/21 06:25:05;;;;;;;6.53;5.53;;;17.20;36.60;;;;;;5044992;28;20443;-82
2022/03/21 06:27:34;;;;;;;8.60;5.97;;;17.20;36.60;;;;;;5044113;28;20471;-83
2022/03/21 06:30:02;;;;;;;7.60;6.30;;;17.20;36.70;;;;;;5044191;28;20467;-84
2022/03/21 06:32:32;;;;;;;11.20;5.83;;;17.20;36.70;;;;;;5044025;28;20477;-84
2022/03/21 06:35:04;;;;;;;7.93;6.37;;;17.20;36.70;;;;;;5045626;28;20447;-84
2022/03/21 06:37:33;;;;;;;7.10;6.40;;;17.30;36.70;;;;;;5043440;28;20482;-84
2022/03/21 06:40:01;;;;;;;9.03;6.57;;;17.30;36.80;;;;;;5044530;28;20453;-84
2022/03/21 06:42:30;;;;;;;6.17;5.50;;;17.30;36.60;;;;;;5043687;28;20448;-82
2022/03/21 06:45:00;;;;;;;7.30;6.40;;;17.30;36.70;;;;;;5043719;28;20520;-84
2022/03/21 06:47:28;;;;;;;7.40;5.90;;;17.40;36.70;;;;;;5043827;28;20474;-83
2022/03/21 06:50:00;;;;;;;6.50;5.80;;;17.40;36.60;;;;;;5042600;28;20467;-84
2022/03/21 06:52:28;;;;;;;7.10;5.90;;;17.40;36.50;;;;;;5042170;28;20462;-84
2022/03/21 06:54:56;;;;;;;8.57;6.40;;;17.50;36.70;;;;;;5042720;28;20458;-85
2022/03/21 06:57:24;;;;;;;9.00;6.63;;;17.60;36.70;;;;;;5042902;28;20471;-84
2022/03/21 06:59:52;;;;;;;7.93;6.50;;;17.60;36.50;;;;;;5041016;28;20489;-84
2022/03/21 07:02:23;;;;;;;7.60;5.90;;;17.70;36.40;;;;;;5041924;28;20444;-83
2022/03/21 07:04:51;;;;;;;9.93;6.10;;;17.70;36.30;;;;;;5042155;28;20443;-85
2022/03/21 07:07:21;;;;;;;6.50;5.90;;;17.80;36.40;;;;;;5042192;28;20471;-84
2022/03/21 07:09:49;;;;;;;7.60;6.30;;;17.90;36.40;;;;;;5042163;28;20475;-85
2022/03/21 07:12:18;;;;;;;7.10;5.93;;;17.90;36.30;;;;;;5043237;28;20456;-84
2022/03/21 07:14:48;;;;;;;10.77;6.53;;;17.90;36.10;;;;;;5042690;28;20938;-84
2022/03/21 07:17:19;;;;;;;8.10;5.97;;;17.90;36.20;;;;;;5051422;28;20551;-85
2022/03/21 07:19:48;;;;;;;6.37;5.63;;;18.00;36.30;;;;;;5052174;28;20431;-85
2022/03/21 07:22:25;;;;;;;7.47;5.90;;;18.00;36.10;;;;;;5047606;28;20467;-84
2022/03/21 07:24:58;;;;;;;6.83;5.80;;;18.10;36.10;;;;;;5044759;28;20447;-85
2022/03/21 07:27:27;;;;;;;10.40;6.27;;;18.20;35.90;;;;;;5044978;28;20473;-84
2022/03/21 07:30:01;;;;;;;6.20;5.60;;;18.20;35.90;;;;;;5037415;28;20471;-85
2022/03/21 07:32:33;;;;;;;7.93;6.17;;;18.20;36.00;;;;;;5044242;28;20447;-85
2022/03/21 07:35:07;;;;;;;6.43;5.73;;;18.30;35.90;;;;;;5044820;28;20440;-85
2022/03/21 07:37:56;;;;;;;7.67;6.43;;;18.30;35.70;;;;;;5045442;28;20538;-85
2022/03/21 07:40:46;;;;;;;6.20;5.60;;;18.30;35.80;;;;;;5047177;28;20493;-86
2022/03/21 07:43:36;;;;;;;6.60;5.90;;;18.30;35.70;;;;;;5049347;28;20443;-84
2022/03/21 07:49:11;;;;;;;7.17;5.87;;;18.50;35.70;;;;;;5051236;28;20447;-84
2022/03/21 07:51:55;;;;;;;6.70;5.87;;;18.60;35.50;;;;;;5049351;28;20443;-85
2022/03/21 07:54:32;;;;;;;9.83;6.53;;;18.70;35.30;;;;;;5049647;28;20494;-85
2022/03/21 07:57:08;;;;;;;7.97;6.93;;;18.70;35.40;;;;;;5048930;28;20497;-83
2022/03/21 07:59:42;;;;;;;7.57;6.40;;;18.80;35.20;;;;;;5050404;28;20486;-85
2022/03/21 08:02:17;;;;;;;6.30;5.60;;;18.90;35.00;;;;;;5050378;28;20435;-84
2022/03/21 08:04:52;;;;;;;7.73;6.60;;;19.10;34.90;;;;;;5050681;28;20446;-84
2022/03/21 08:07:38;;;;;;;7.70;6.53;;;19.10;34.90;;;;;;5051552;28;20467;-83
2022/03/21 08:10:15;;;;;;;9.73;6.80;;;19.20;34.90;;;;;;5051045;28;20474;-84
2022/03/21 08:12:46;;;;;;;8.50;6.40;;;19.10;34.90;;;;;;5049959;28;20443;-84
2022/03/21 08:15:20;;;;;;;8.00;6.97;;;19.30;34.70;;;;;;5049625;28;20470;-84
2022/03/21 08:18:04;;;;;;;8.93;6.90;;;19.30;34.90;;;;;;5050100;28;20451;-84
2022/03/21 08:20:45;;;;;;;8.13;6.67;;;19.10;35.20;;;;;;5052002;28;20439;-84
2022/03/21 08:23:34;;;;;;;7.83;6.40;;;18.90;35.70;;;;;;5049164;28;20467;-83
2022/03/21 08:26:12;;;;;;;6.90;6.20;;;19.10;35.80;;;;;;5050662;28;20469;-85
2022/03/21 08:28:40;;;;;;;8.40;6.70;;;19.20;35.80;;;;;;5052834;28;20434;-85
2022/03/21 08:31:12;;;;;;;8.20;6.20;;;19.30;35.80;;;;;;5051612;28;20468;-84
2022/03/21 08:33:43;;;;;;;7.40;6.43;;;19.40;35.90;;;;;;5046020;28;20445;-84
2022/03/21 08:36:12;;;;;;;6.80;6.10;;;19.50;35.90;;;;;;5032173;28;20475;-83
2022/03/21 08:38:40;;;;;;;7.03;5.80;;;19.70;35.90;;;;;;5041192;28;20470;-84
2022/03/21 08:41:11;;;;;;;6.47;5.87;;;19.80;36.00;;;;;;5042884;28;20786;-84
2022/03/21 08:43:41;;;;;;;9.00;6.60;;;20.00;36.00;;;;;;5043522;28;20478;-84
2022/03/21 08:46:24;;;;;;;7.30;6.60;;;20.30;35.90;;;;;;5046256;28;20467;-83
2022/03/21 08:51:58;;;;;;;6.37;5.80;;;20.60;35.80;;;;;;5042489;28;20479;-85
2022/03/21 08:54:31;;;;;;;6.90;6.20;;;20.80;35.70;;;;;;5038134;28;20474;-83
2022/03/21 08:57:10;;;;;;;9.80;6.30;;;21.00;35.70;;;;;;5044885;28;20471;-84
2022/03/21 08:59:42;;;;;;;8.43;6.23;;;21.20;35.70;;;;;;5045667;28;20445;-84
2022/03/21 09:02:17;;;;;;;8.40;6.40;;;21.40;35.50;;;;;;5045631;28;20443;-83
2022/03/21 09:04:49;;;;;;;7.30;6.60;;;21.50;35.50;;;;;;5045526;28;20477;-84
2022/03/21 09:07:21;;;;;;;7.77;6.00;;;21.70;35.50;;;;;;5045735;28;20471;-85
2022/03/21 09:09:55;;;;;;;8.00;6.40;;;21.90;35.30;;;;;;5033746;28;20444;-84
2022/03/21 09:12:32;;;;;;;7.20;6.43;;;22.20;35.20;;;;;;5045973;28;20446;-83
2022/03/21 09:15:02;;;;;;;7.63;6.60;;;22.40;34.90;;;;;;5046925;28;20440;-83
2022/03/21 09:17:40;;;;;;;7.13;6.47;;;22.50;34.80;;;;;;5031701;28;20475;-85
2022/03/21 09:20:14;;;;;;;9.10;6.00;;;22.70;34.90;;;;;;5031741;28;20456;-82
2022/03/21 09:22:43;;;;;;;12.30;6.40;;;22.90;34.70;;;;;;5041481;28;20475;-83
2022/03/21 09:25:17;;;;;;;6.27;5.70;;;23.10;34.60;;;;;;5047847;28;20517;-84
2022/03/21 09:27:52;;;;;;;6.70;6.10;;;23.30;34.50;;;;;;5037559;28;20513;-82
2022/03/21 09:30:25;;;;;;;6.57;5.97;;;23.60;34.40;;;;;;5049199;28;20536;-84
2022/03/21 09:32:54;;;;;;;7.33;6.20;;;23.70;34.40;;;;;;5048753;28;20422;-83
2022/03/21 09:35:25;;;;;;;6.97;6.23;;;23.90;34.30;;;;;;5046818;28;20435;-84
2022/03/21 09:38:00;;;;;;;6.30;5.80;;;24.10;34.20;;;;;;5048250;28;20441;-82
2022/03/21 09:40:29;;;;;;;6.47;5.73;;;24.40;34.20;;;;;;5046658;28;20435;-83
2022/03/21 09:49:36;;;;;;;6.60;5.50;;;25.00;33.70;;;;;;5035868;28;20429;-83
2022/03/21 09:52:50;;;;;;;7.60;6.53;;;25.30;33.60;;;;;;5034896;28;20486;-85
2022/03/21 09:55:38;;;;;;;7.03;6.33;;;25.50;33.40;;;;;;4993282;28;20430;-83
2022/03/21 10:01:44;;;;;;;8.20;6.60;;;25.80;32.80;;;;;;5031806;28;20414;-85
2022/03/21 10:04:12;;;;;;;6.70;6.10;;;26.10;32.50;;;;;;5040311;28;20470;-83
2022/03/21 10:06:41;;;;;;;8.10;7.27;;;26.40;32.30;;;;;;5041380;28;20463;-84
2022/03/21 10:09:11;;;;;;;8.00;6.70;;;26.50;32.10;;;;;;5041390;28;20470;-84
2022/03/21 10:11:40;;;;;;;6.90;6.27;;;26.70;31.90;;;;;;5042812;28;20471;-85
2022/03/21 10:14:29;;;;;;;7.43;6.80;;;26.80;31.70;;;;;;5040108;28;20447;-82
2022/03/21 10:16:58;;;;;;;8.80;7.20;;;27.00;31.60;;;;;;5041140;28;20502;-83
2022/03/21 10:19:27;;;;;;;10.50;7.30;;;27.20;31.50;;;;;;5041835;28;20430;-83
2022/03/21 10:22:03;;;;;;;7.80;7.00;;;27.40;31.30;;;;;;5040376;28;20441;-83
2022/03/21 10:24:38;;;;;;;7.40;6.80;;;27.60;31.70;;;;;;5038671;28;20443;-83
2022/03/21 10:27:07;;;;;;;8.03;6.70;;;27.80;30.70;;;;;;5038629;28;20957;-84
2022/03/21 10:29:52;;;;;;;7.40;6.70;;;28.00;30.40;;;;;;5038002;28;20477;-83
2022/03/21 10:32:33;;;;;;;7.00;6.40;;;28.20;30.40;;;;;;5032321;28;20480;-82
2022/03/21 10:35:02;;;;;;;7.63;6.30;;;28.40;30.20;;;;;;5037893;28;20451;-83
2022/03/21 10:37:45;;;;;;;7.70;6.90;;;28.60;30.10;;;;;;5056569;28;20467;-82
2022/03/21 10:40:24;;;;;;;7.97;7.13;;;28.70;30.00;;;;;;5054406;28;20439;-83
2022/03/21 10:42:55;;;;;;;7.60;6.90;;;28.90;29.90;;;;;;5043202;28;20497;-84
2022/03/21 10:45:26;;;;;;;7.83;7.03;;;29.10;29.80;;;;;;5043460;28;20447;-83
2022/03/21 10:47:55;;;;;;;7.43;6.83;;;29.30;29.60;;;;;;5032182;28;20487;-84
2022/03/21 10:50:30;;;;;;;8.00;6.77;;;29.50;29.60;;;;;;5036281;28;20997;-82
2022/03/21 10:53:14;;;;;;;7.57;6.70;;;29.60;29.40;;;;;;5036619;28;20470;-82
2022/03/21 10:55:43;;;;;;;7.57;6.80;;;29.80;29.20;;;;;;5036042;28;20963;-83
2022/03/21 10:58:11;;;;;;;7.47;6.77;;;30.00;29.10;;;;;;5036301;28;20494;-83
2022/03/21 11:00:41;;;;;;;7.30;6.70;;;30.20;28.90;;;;;;5035117;28;20534;-84
2022/03/21 11:03:13;;;;;;;8.10;7.13;;;30.50;28.80;;;;;;5035941;28;20546;-83
2022/03/21 11:05:43;;;;;;;7.13;6.43;;;30.70;28.60;;;;;;5027393;28;20455;-83
2022/03/21 11:08:12;;;;;;;7.43;6.33;;;30.90;28.50;;;;;;5035185;28;20451;-83
2022/03/21 11:10:40;;;;;;;8.23;7.43;;;31.00;28.30;;;;;;5034839;28;20447;-83
2022/03/21 11:13:09;;;;;;;7.63;6.93;;;31.30;28.30;;;;;;5035568;28;20450;-84
2022/03/21 11:15:40;;;;;;;7.00;6.40;;;31.60;28.10;;;;;;5038286;28;20454;-83
2022/03/21 11:18:09;;;;;;;7.10;6.60;;;31.80;28.00;;;;;;5039517;28;20451;-84
2022/03/21 11:20:38;;;;;;;7.60;7.00;;;32.10;27.80;;;;;;5034555;28;20440;-83
2022/03/21 11:23:06;;;;;;;7.73;7.07;;;32.40;27.50;;;;;;5026752;28;20460;-83
2022/03/21 11:25:36;;;;;;;6.87;6.27;;;33.10;27.10;;;;;;5034569;28;20448;-83
2022/03/21 11:28:48;;;;;;;6.63;6.13;;;33.70;26.60;;;;;;5045846;28;20443;-83
2022/03/21 11:31:21;;;;;;;6.47;5.77;;;34.40;26.20;;;;;;5056778;28;20459;-85
2022/03/21 11:33:54;;;;;;;7.83;6.50;;;35.20;25.40;;;;;;5061216;28;20443;-84
2022/03/21 11:36:26;;;;;;;6.53;6.03;;;35.20;25.20;;;;;;5061426;28;20459;-85
2022/03/21 11:38:58;;;;;;;6.20;5.80;;;35.40;25.10;;;;;;5056875;28;20435;-85
2022/03/21 11:41:28;;;;;;;5.57;5.27;;;36.10;24.60;;;;;;5060989;28;20466;-85
2022/03/21 11:44:14;;;;;;;6.20;5.83;;;36.50;24.00;;;;;;5059525;28;20460;-85
2022/03/21 11:46:45;;;;;;;5.60;5.30;;;37.00;23.90;;;;;;5062674;28;20516;-84
2022/03/21 11:49:49;;;;;;;4.87;4.67;;;37.90;23.40;;;;;;5051052;28;20436;-86
2022/03/21 11:52:17;;;;;;;5.43;5.13;;;38.60;22.80;;;;;;5035067;28;20548;-85
2022/03/21 11:54:46;;;;;;;5.57;5.17;;;39.20;22.40;;;;;;5032739;28;20799;-84
2022/03/21 11:57:25;;;;;;;5.60;5.20;;;39.50;21.90;;;;;;5033863;28;20459;-85
2022/03/21 12:00:01;;;;;;;4.93;4.73;;;40.20;21.50;;;;;;5038881;28;20443;-84
2022/03/21 12:02:57;;;;;;;4.80;4.60;;;40.70;21.20;;;;;;5058606;28;20485;-86
2022/03/21 12:05:40;;;;;;;4.57;4.37;;;41.70;20.80;;;;;;5055750;28;20462;-88
2022/03/21 12:08:49;;;;;;;4.93;4.57;;;42.20;20.40;;;;;;5058847;28;20507;-88
2022/03/21 12:12:01;;;;;;;3.93;3.83;;;42.50;20.20;;;;;;5038174;28;20447;-86
2022/03/21 12:14:46;;;;;;;4.13;4.03;;;43.10;20.00;;;;;;5034161;28;20450;-85
2022/03/21 12:17:37;;;;;;;3.60;3.50;;;43.50;19.60;;;;;;5049417;28;20506;-86
2022/03/21 12:20:10;;;;;;;3.93;3.80;;;43.90;19.50;;;;;;5050659;28;20443;-83
2022/03/21 12:23:21;;;;;;;3.83;3.73;;;44.60;18.90;;;;;;5050628;28;20509;-87
2022/03/21 12:25:55;;;;;;;3.87;3.77;;;44.90;18.50;;;;;;5033633;28;20451;-84
2022/03/21 12:31:32;;;;;;;4.73;4.43;;;44.20;18.60;;;;;;5043826;28;20501;-84
2022/03/21 12:34:36;;;;;;;4.07;3.87;;;43.20;19.00;;;;;;5037710;28;20454;-84
2022/03/21 12:37:09;;;;;;;4.87;4.67;;;41.90;19.80;;;;;;5032849;28;20469;-84
2022/03/21 12:39:39;;;;;;;5.00;4.70;;;41.20;20.40;;;;;;5039313;28;20489;-84
2022/03/21 12:42:08;;;;;;;5.20;5.00;;;40.90;20.90;;;;;;5035290;28;20553;-85
2022/03/21 12:44:38;;;;;;;4.47;4.37;;;42.20;20.30;;;;;;5038830;28;20453;-84
2022/03/21 12:47:08;;;;;;;4.00;3.90;;;43.30;19.50;;;;;;5041717;28;20532;-83
2022/03/21 12:54:50;;;;;;;;;;;;;;;;;;;;;
2022/03/21 13:01:05;;;;;;;3.75;3.65;;;45.80;17.80;;;;;;5048349;28;20481;-85
2022/03/21 13:11:46;;;;;;;3.88;3.78;;;46.20;17.80;;;;;;4954805;28;20207;-84
2022/03/21 13:14:48;;;;;;;3.80;3.70;;;46.40;17.80;;;;;;5001116;28;20242;-84
2022/03/21 13:24:18;;;;;;;3.75;3.65;;;46.80;17.40;;;;;;4998551;28;20226;-84
2022/03/21 13:27:20;;;;;;;3.25;3.15;;;46.80;17.30;;;;;;4997693;28;20268;-84
2022/03/21 13:29:50;;;;;;;3.83;3.72;;;46.80;17.50;;;;;;4986480;28;20246;-83
2022/03/21 13:32:19;;;;;;;3.33;3.33;;;46.70;17.40;;;;;;5000199;28;20199;-83
2022/03/21 13:34:55;;;;;;;3.58;3.47;;;46.80;17.50;;;;;;4998730;28;20711;-84
2022/03/21 13:37:33;;;;;;;3.67;3.53;;;46.70;17.40;;;;;;4998967;28;20226;-83
2022/03/21 13:40:06;;;;;;;3.50;3.40;;;46.50;17.50;;;;;;5000312;28;20298;-83
2022/03/21 13:42:42;;;;;;;3.70;3.60;;;46.50;17.50;;;;;;5001188;28;20305;-83
2022/03/21 13:45:17;;;;;;;4.05;3.90;;;46.10;17.60;;;;;;4999100;28;20544;-84
2022/03/21 13:47:58;;;;;;;3.80;3.60;;;45.40;17.90;;;;;;5027810;28;20457;-84
2022/03/21 13:50:30;;;;;;;3.93;3.73;;;44.80;18.30;;;;;;5056536;28;20515;-84
2022/03/21 13:53:00;;;;;;;4.10;4.00;;;44.40;18.60;;;;;;5059957;28;20434;-84
2022/03/21 13:55:39;;;;;;;4.60;4.30;;;44.10;18.60;;;;;;5064917;28;20468;-84
2022/03/21 13:58:08;;;;;;;5.17;4.70;;;43.90;19.00;;;;;;5050749;28;20442;-83
2022/03/21 14:00:37;;;;;;;5.00;4.50;;;43.60;19.00;;;;;;5045667;28;20458;-84
2022/03/21 14:03:07;;;;;;;4.83;4.63;;;43.30;19.20;;;;;;5044691;28;20478;-84
2022/03/21 14:05:36;;;;;;;5.17;4.97;;;43.00;19.20;;;;;;5061578;28;20453;-83
2022/03/21 14:08:12;;;;;;;4.77;4.57;;;43.00;19.40;;;;;;5064159;28;20974;-84
2022/03/21 14:10:42;;;;;;;4.73;4.50;;;43.50;19.30;;;;;;5061970;28;20449;-84
2022/03/21 14:13:14;;;;;;;4.50;4.40;;;43.80;19.00;;;;;;5062945;28;20434;-83
2022/03/21 14:15:43;;;;;;;4.33;4.23;;;44.00;19.00;;;;;;5062820;28;20478;-83
2022/03/21 14:18:12;;;;;;;4.30;4.10;;;44.10;18.90;;;;;;5063256;28;20441;-83